createdAt,value
2022-08-27T00:01:42.336Z,64.64
2022-08-27T00:04:19.769Z,64.62
2022-08-27T00:06:59.004Z,64.65
2022-08-27T00:09:39.702Z,64.51
2022-08-27T00:12:19.617Z,64.72
2022-08-27T00:15:02.845Z,64.69
2022-08-27T00:17:39.209Z,64.48
2022-08-27T00:20:26.238Z,64.63
2022-08-27T00:23:01.001Z,64.62
2022-08-27T00:25:49.196Z,64.60
2022-08-27T00:28:35.743Z,64.92
2022-08-27T00:31:35.794Z,64.83
2022-08-27T00:34:13.622Z,64.69
2022-08-27T00:36:54.804Z,65.02
2022-08-27T00:39:26.809Z,64.99
2022-08-27T00:42:01.082Z,64.96
2022-08-27T00:44:38.918Z,65.10
2022-08-27T00:47:37.876Z,65.00
2022-08-27T00:50:15.779Z,64.90
2022-08-27T00:52:57.330Z,65.09
2022-08-27T00:55:48.582Z,65.02
2022-08-27T01:05:07.794Z,64.85
2022-08-27T01:07:55.423Z,64.68
2022-08-27T01:10:32.807Z,64.56
2022-08-27T01:13:08.256Z,64.57
2022-08-27T01:16:03.482Z,64.65
2022-08-27T01:18:41.688Z,64.42
2022-08-27T01:21:48.450Z,64.31
2022-08-27T01:24:44.862Z,64.28
2022-08-27T01:27:18.950Z,64.28
2022-08-27T01:29:53.215Z,64.06
2022-08-27T01:32:33.270Z,64.29
2022-08-27T01:35:18.017Z,64.34
2022-08-27T01:37:52.430Z,64.39
2022-08-27T01:40:25.352Z,64.40
2022-08-27T01:43:17.794Z,64.47
2022-08-27T01:45:52.105Z,64.44
2022-08-27T01:49:04.608Z,64.30
2022-08-27T01:51:59.612Z,64.20
2022-08-27T01:54:51.675Z,64.31
2022-08-27T01:57:36.510Z,64.27
2022-08-27T02:00:19.226Z,64.18
2022-08-27T02:02:51.904Z,64.40
2022-08-27T02:05:44.907Z,64.34
2022-08-27T02:08:33.922Z,64.65
2022-08-27T02:11:21.861Z,64.48
2022-08-27T02:13:58.839Z,64.34
2022-08-27T02:16:41.304Z,64.51
2022-08-27T02:19:36.873Z,64.49
2022-08-27T02:22:09.096Z,64.49
2022-08-27T02:25:10.219Z,64.39
2022-08-27T02:27:46.954Z,64.61
2022-08-27T02:30:32.319Z,64.37
2022-08-27T02:33:23.545Z,64.46
2022-08-27T02:36:10.915Z,64.54
2022-08-27T02:39:06.310Z,64.63
2022-08-27T02:41:49.751Z,64.50
2022-08-27T02:44:45.942Z,64.81
2022-08-27T02:47:26.405Z,64.76
2022-08-27T02:50:17.725Z,64.87
2022-08-27T02:52:57.057Z,64.63
2022-08-27T02:55:37.929Z,64.92
2022-08-27T02:58:31.744Z,64.97
2022-08-27T03:01:14.426Z,64.74
2022-08-27T03:03:52.113Z,64.96
2022-08-27T03:06:47.628Z,64.98
2022-08-27T03:09:19.182Z,64.92
2022-08-27T03:11:54.218Z,65.05
2022-08-27T03:14:43.592Z,65.01
2022-08-27T03:17:57.185Z,65.02
2022-08-27T03:20:31.852Z,65.21
2022-08-27T03:23:11.165Z,65.36
2022-08-27T03:25:53.727Z,65.47
2022-08-27T03:28:37.751Z,65.22
2022-08-27T03:31:16.760Z,65.31
2022-08-27T03:33:49.143Z,65.32
2022-08-27T03:36:30.468Z,65.57
2022-08-27T03:39:11.296Z,65.57
2022-08-27T03:41:54.640Z,65.83
2022-08-27T03:44:35.918Z,65.59
2022-08-27T03:47:17.393Z,65.80
2022-08-27T03:49:55.194Z,65.68
2022-08-27T03:52:44.806Z,65.84
2022-08-27T03:55:28.918Z,65.78
2022-08-27T03:58:19.007Z,65.82
2022-08-27T04:01:02.539Z,65.80
2022-08-27T04:03:37.759Z,65.77
2022-08-27T04:07:01.044Z,65.96
2022-08-27T04:09:57.171Z,65.70
2022-08-27T04:12:33.803Z,66.21
2022-08-27T04:15:17.890Z,66.28
2022-08-27T04:17:54.050Z,66.15
2022-08-27T04:20:35.112Z,66.33
2022-08-27T04:23:10.510Z,66.22
2022-08-27T04:25:56.357Z,66.43
2022-08-27T04:28:57.709Z,66.28
2022-08-27T04:31:42.981Z,66.14
2022-08-27T04:34:14.784Z,66.45
2022-08-27T04:36:46.706Z,66.40
2022-08-27T04:39:21.739Z,66.35
2022-08-27T04:42:13.817Z,66.40
2022-08-27T04:45:07.036Z,66.21
2022-08-27T04:48:04.693Z,66.61
2022-08-27T04:50:44.713Z,66.44
2022-08-27T04:53:33.918Z,66.44
2022-08-27T04:56:05.574Z,66.35
2022-08-27T04:58:49.431Z,66.58
2022-08-27T05:01:29.932Z,66.57
2022-08-27T05:04:20.271Z,66.73
2022-08-27T05:07:15.179Z,66.72
2022-08-27T05:10:00.249Z,66.60
2022-08-27T05:12:40.601Z,66.63
2022-08-27T05:15:26.387Z,66.73
2022-08-27T05:18:54.357Z,66.76
2022-08-27T05:21:36.360Z,66.73
2022-08-27T05:24:34.234Z,66.58
2022-08-27T05:27:12.987Z,66.72
2022-08-27T05:30:04.782Z,66.80
2022-08-27T05:33:04.229Z,66.52
2022-08-27T05:35:59.805Z,66.66
2022-08-27T05:39:19.690Z,66.44
2022-08-27T05:42:20.530Z,66.43
2022-08-27T05:44:57.714Z,66.31
2022-08-27T05:47:50.852Z,66.00
2022-08-27T05:50:30.518Z,65.96
2022-08-27T05:53:01.865Z,65.94
2022-08-27T05:55:48.267Z,65.88
2022-08-27T05:58:42.041Z,65.88
2022-08-27T06:01:24.584Z,65.65
2022-08-27T06:04:02.385Z,65.60
2022-08-27T06:07:12.815Z,65.41
2022-08-27T06:10:00.996Z,65.33
2022-08-27T06:13:03.925Z,65.22
2022-08-27T06:16:30.388Z,65.11
2022-08-27T06:19:20.792Z,65.26
2022-08-27T06:22:01.189Z,64.85
2022-08-27T06:24:48.074Z,64.75
2022-08-27T06:27:26.582Z,64.80
2022-08-27T06:30:37.920Z,64.86
2022-08-27T06:33:12.556Z,64.80
2022-08-27T06:35:41.924Z,64.72
2022-08-27T06:38:10.893Z,64.38
2022-08-27T06:40:46.012Z,64.57
2022-08-27T06:43:14.880Z,64.62
2022-08-27T06:46:04.698Z,64.44
2022-08-27T06:48:47.296Z,64.09
2022-08-27T06:51:33.798Z,64.14
2022-08-27T06:54:15.959Z,64.10
2022-08-27T06:57:05.174Z,63.88
2022-08-27T06:59:34.267Z,63.86
2022-08-27T07:02:15.233Z,63.67
2022-08-27T07:04:50.888Z,63.57
2022-08-27T07:07:30.142Z,63.40
2022-08-27T07:10:09.749Z,63.38
2022-08-27T07:12:48.704Z,63.07
2022-08-27T07:15:23.314Z,63.37
2022-08-27T07:18:06.985Z,63.26
2022-08-27T07:20:55.952Z,63.11
2022-08-27T07:23:35.504Z,63.05
2022-08-27T07:42:15.467Z,62.67
2022-08-27T07:44:50.340Z,62.59
2022-08-27T07:47:24.361Z,62.36
2022-08-27T07:49:54.367Z,62.27
2022-08-27T07:52:34.831Z,61.95
2022-08-27T07:55:07.713Z,62.19
2022-08-27T07:57:37.026Z,62.19
2022-08-27T08:00:16.580Z,62.10
2022-08-27T08:02:51.385Z,61.98
2022-08-27T08:05:44.178Z,61.88
2022-08-27T08:08:16.345Z,61.95
2022-08-27T08:10:59.061Z,61.68
2022-08-27T08:13:36.813Z,61.74
2022-08-27T08:16:06.785Z,61.65
2022-08-27T08:18:42.245Z,61.59
2022-08-27T08:21:14.065Z,61.51
2022-08-27T08:23:47.427Z,61.47
2022-08-27T08:26:24.822Z,61.35
2022-08-27T08:28:59.343Z,61.38
2022-08-27T08:31:31.103Z,61.11
2022-08-27T08:34:05.010Z,61.01
2022-08-27T08:36:39.328Z,61.00
2022-08-27T08:39:08.276Z,60.87
2022-08-27T08:41:48.884Z,60.85
2022-08-27T08:44:33.135Z,60.74
2022-08-27T08:47:04.624Z,60.73
2022-08-27T08:49:47.550Z,60.56
2022-08-27T08:52:31.300Z,60.59
2022-08-27T08:55:36.187Z,60.46
2022-08-27T08:58:30.571Z,60.44
2022-08-27T09:01:10.459Z,60.33
2022-08-27T09:03:42.282Z,60.28
2022-08-27T09:06:38.206Z,60.16
2022-08-27T09:09:38.529Z,60.00
2022-08-27T09:12:16.212Z,59.87
2022-08-27T09:14:59.254Z,59.68
2022-08-27T09:17:30.442Z,59.51
2022-08-27T09:19:59.487Z,59.39
2022-08-27T09:22:41.587Z,59.22
2022-08-27T09:25:21.124Z,59.12
2022-08-27T09:27:53.499Z,59.08
2022-08-27T09:30:30.314Z,59.03
2022-08-27T09:33:04.648Z,58.85
2022-08-27T09:35:42.436Z,58.84
2022-08-27T09:38:14.302Z,58.59
2022-08-27T09:40:48.805Z,58.53
2022-08-27T09:43:17.974Z,58.39
2022-08-27T09:45:49.590Z,58.36
2022-08-27T09:48:20.362Z,58.14
2022-08-27T09:50:54.415Z,57.92
2022-08-27T09:53:26.848Z,57.80
2022-08-27T09:56:04.558Z,57.77
2022-08-27T09:58:55.074Z,57.74
2022-08-27T10:01:27.453Z,57.50
2022-08-27T10:04:15.609Z,57.39
2022-08-27T10:06:50.436Z,57.31
2022-08-27T10:09:42.189Z,56.93
2022-08-27T10:12:20.110Z,56.68
2022-08-27T10:15:01.693Z,56.53
2022-08-27T10:17:42.576Z,56.18
2022-08-27T10:20:30.338Z,56.20
2022-08-27T10:23:09.481Z,56.07
2022-08-27T10:26:20.059Z,55.51
2022-08-27T10:28:56.002Z,55.28
2022-08-27T10:31:43.954Z,55.28
2022-08-27T10:34:44.785Z,54.98
2022-08-27T10:37:36.710Z,54.69
2022-08-27T10:40:34.755Z,54.38
2022-08-27T10:43:18.178Z,54.30
2022-08-27T10:45:53.130Z,53.87
2022-08-27T10:48:35.518Z,53.43
2022-08-27T10:51:20.178Z,53.20
2022-08-27T10:54:04.633Z,52.93
2022-08-27T10:56:43.458Z,52.86
2022-08-27T10:59:32.663Z,52.44
2022-08-27T11:02:36.390Z,52.16
2022-08-27T11:05:24.167Z,51.68
2022-08-27T11:08:06.628Z,51.41
2022-08-27T11:10:41.709Z,51.07
2022-08-27T11:13:25.697Z,50.73
2022-08-27T11:15:56.919Z,50.72
2022-08-27T11:18:38.015Z,50.45
2022-08-27T11:21:15.122Z,50.25
2022-08-27T11:23:54.269Z,50.01
2022-08-27T11:26:23.393Z,49.27
2022-08-27T11:29:00.407Z,49.19
2022-08-27T11:31:35.602Z,48.69
2022-08-27T11:34:21.188Z,48.60
2022-08-27T11:37:19.941Z,48.29
2022-08-27T11:40:08.140Z,47.70
2022-08-27T11:42:44.043Z,47.31
2022-08-27T11:45:29.946Z,47.02
2022-08-27T11:48:03.260Z,47.11
2022-08-27T11:50:32.667Z,46.55
2022-08-27T11:53:12.042Z,46.31
2022-08-27T11:55:41.095Z,45.81
2022-08-27T11:58:23.810Z,45.69
2022-08-27T12:00:53.928Z,45.28
2022-08-27T12:03:30.393Z,44.88
2022-08-27T12:05:59.288Z,44.79
2022-08-27T12:08:32.156Z,44.30
2022-08-27T12:11:31.070Z,43.89
2022-08-27T12:14:17.570Z,43.56
2022-08-27T12:16:58.345Z,43.05
2022-08-27T12:20:01.793Z,42.57
2022-08-27T12:23:08.313Z,42.30
2022-08-27T12:25:36.998Z,41.84
2022-08-27T12:28:09.529Z,41.49
2022-08-27T12:30:49.677Z,41.12
2022-08-27T12:33:32.444Z,41.03
2022-08-27T12:36:11.048Z,40.31
2022-08-27T12:38:50.474Z,40.05
2022-08-27T12:41:44.524Z,39.64
2022-08-27T12:44:23.817Z,39.16
2022-08-27T12:46:54.872Z,38.91
2022-08-27T12:49:38.626Z,38.39
2022-08-27T12:52:35.646Z,38.04
2022-08-27T12:55:41.708Z,37.69
2022-08-27T12:58:37.326Z,37.29
2022-08-27T13:01:18.095Z,36.95
2022-08-27T13:03:54.665Z,36.50
2022-08-27T13:06:33.805Z,36.26
2022-08-27T13:09:08.715Z,36.04
2022-08-27T13:11:49.399Z,35.98
2022-08-27T13:14:20.747Z,35.48
2022-08-27T13:16:57.928Z,35.35
2022-08-27T13:19:35.945Z,35.08
2022-08-27T13:22:07.384Z,34.93
2022-08-27T13:24:49.382Z,34.91
2022-08-27T13:27:30.795Z,34.58
2022-08-27T13:30:08.130Z,34.42
2022-08-27T13:32:38.294Z,34.18
2022-08-27T13:35:09.885Z,34.04
2022-08-27T13:37:50.863Z,33.96
2022-08-27T13:40:34.692Z,33.96
2022-08-27T13:43:13.470Z,33.47
2022-08-27T13:45:42.666Z,33.34
2022-08-27T13:48:13.157Z,33.61
2022-08-27T13:50:49.873Z,33.48
2022-08-27T13:53:43.240Z,33.39
2022-08-27T13:56:23.181Z,33.50
2022-08-27T13:58:52.117Z,33.43
2022-08-27T14:01:31.448Z,33.58
2022-08-27T14:04:06.592Z,33.32
2022-08-27T14:06:43.425Z,33.56
2022-08-27T14:09:22.347Z,33.56
2022-08-27T14:12:06.600Z,33.42
2022-08-27T14:14:41.395Z,33.31
2022-08-27T14:17:29.465Z,33.43
2022-08-27T14:20:04.404Z,33.55
2022-08-27T14:22:35.135Z,33.42
2022-08-27T14:25:06.540Z,33.59
2022-08-27T14:27:39.470Z,33.62
2022-08-27T14:30:16.907Z,33.56
2022-08-27T14:32:46.000Z,33.84
2022-08-27T14:35:14.852Z,33.73
2022-08-27T14:37:55.110Z,33.70
2022-08-27T14:40:24.414Z,33.67
2022-08-27T14:42:53.685Z,33.80
2022-08-27T14:45:23.516Z,33.74
2022-08-27T14:47:52.817Z,33.79
2022-08-27T14:50:22.172Z,33.94
2022-08-27T14:52:54.387Z,33.94
2022-08-27T14:55:23.894Z,34.13
2022-08-27T14:57:52.787Z,34.12
2022-08-27T15:00:37.396Z,34.07
2022-08-27T15:03:07.931Z,34.19
2022-08-27T15:05:37.582Z,34.26
2022-08-27T15:08:06.469Z,34.25
2022-08-27T15:10:40.612Z,34.28
2022-08-27T15:13:11.725Z,34.39
2022-08-27T15:15:41.483Z,34.56
2022-08-27T15:18:10.591Z,34.48
2022-08-27T15:20:40.856Z,34.52
2022-08-27T15:23:14.561Z,34.69
2022-08-27T15:25:45.909Z,34.65
2022-08-27T15:28:14.900Z,34.70
2022-08-27T15:30:44.052Z,34.67
2022-08-27T15:33:12.683Z,34.77
2022-08-27T15:35:41.443Z,34.67
2022-08-27T15:38:11.129Z,34.85
2022-08-27T15:40:40.252Z,34.91
2022-08-27T15:43:13.018Z,34.91
2022-08-27T15:45:41.763Z,34.80
2022-08-27T15:48:11.114Z,34.85
2022-08-27T15:50:41.286Z,34.99
2022-08-27T15:53:11.128Z,34.97
2022-08-27T15:55:42.713Z,35.27
2022-08-27T15:58:14.894Z,35.40
2022-08-27T16:00:46.765Z,35.39
2022-08-27T16:03:17.009Z,35.45
2022-08-27T16:05:46.470Z,35.60
2022-08-27T16:08:15.372Z,35.78
2022-08-27T16:10:44.467Z,36.01
2022-08-27T16:13:13.267Z,36.13
2022-08-27T16:15:42.440Z,36.02
2022-08-27T16:18:14.518Z,36.35
2022-08-27T16:20:43.641Z,36.29
2022-08-27T16:23:18.034Z,36.46
2022-08-27T16:25:47.472Z,36.58
2022-08-27T16:28:19.400Z,36.97
2022-08-27T16:30:50.268Z,36.81
2022-08-27T16:33:19.743Z,36.81
2022-08-27T16:35:48.803Z,37.01
2022-08-27T16:38:17.934Z,36.69
2022-08-27T16:40:53.481Z,37.24
2022-08-27T16:43:24.761Z,37.07
2022-08-27T16:45:55.703Z,37.26
2022-08-27T16:48:44.318Z,37.51
2022-08-27T16:51:30.002Z,37.82
2022-08-27T16:54:05.894Z,37.83
2022-08-27T16:56:38.112Z,38.01
2022-08-27T16:59:07.743Z,38.21
2022-08-27T17:01:41.652Z,38.63
2022-08-27T17:04:19.368Z,38.84
2022-08-27T17:06:56.829Z,39.33
2022-08-27T17:09:27.085Z,39.62
2022-08-27T17:11:58.190Z,39.87
2022-08-27T17:14:27.042Z,40.48
2022-08-27T17:16:55.675Z,40.75
2022-08-27T17:19:26.342Z,41.22
2022-08-27T17:21:55.160Z,41.65
2022-08-27T17:24:24.084Z,41.69
2022-08-27T17:26:55.213Z,42.09
2022-08-27T17:29:24.237Z,42.58
2022-08-27T17:31:56.186Z,42.79
2022-08-27T17:34:28.775Z,43.11
2022-08-27T17:37:04.818Z,43.47
2022-08-27T17:39:33.866Z,43.84
2022-08-27T17:42:05.774Z,44.34
2022-08-27T17:44:38.555Z,44.54
2022-08-27T17:47:09.065Z,44.81
2022-08-27T17:49:38.385Z,45.03
2022-08-27T17:52:13.955Z,45.55
2022-08-27T17:54:46.406Z,45.73
2022-08-27T17:57:18.405Z,46.05
2022-08-27T17:59:47.514Z,46.27
2022-08-27T18:02:30.614Z,46.63
2022-08-27T18:04:59.643Z,46.86
2022-08-27T18:07:28.851Z,47.01
2022-08-27T18:09:57.569Z,47.35
2022-08-27T18:12:30.146Z,47.59
2022-08-27T18:15:14.510Z,47.85
2022-08-27T18:17:43.799Z,48.47
2022-08-27T18:20:15.007Z,48.65
2022-08-27T18:22:48.682Z,48.87
2022-08-27T18:25:19.320Z,48.98
2022-08-27T18:27:53.425Z,49.34
2022-08-27T18:30:23.079Z,49.61
2022-08-27T18:32:52.874Z,49.71
2022-08-27T18:35:30.457Z,50.14
2022-08-27T18:37:59.923Z,50.28
2022-08-27T18:40:36.889Z,50.63
2022-08-27T18:43:05.985Z,50.81
2022-08-27T18:45:37.900Z,50.95
2022-08-27T18:48:18.830Z,51.08
2022-08-27T18:50:54.350Z,51.45
2022-08-27T18:53:26.843Z,51.50
2022-08-27T18:55:55.603Z,51.91
2022-08-27T18:58:25.135Z,51.93
2022-08-27T19:01:01.204Z,52.13
2022-08-27T19:03:33.613Z,52.39
2022-08-27T19:06:07.900Z,52.45
2022-08-27T19:08:40.958Z,52.57
2022-08-27T19:11:09.974Z,52.80
2022-08-27T19:13:39.265Z,52.93
2022-08-27T19:16:20.870Z,53.25
2022-08-27T19:18:49.743Z,53.42
2022-08-27T19:21:18.541Z,53.54
2022-08-27T19:23:48.439Z,53.89
2022-08-27T19:26:21.512Z,53.70
2022-08-27T19:28:50.121Z,54.11
2022-08-27T19:31:18.699Z,54.15
2022-08-27T19:33:50.281Z,54.28
2022-08-27T19:36:25.951Z,54.42
2022-08-27T19:38:56.738Z,54.58
2022-08-27T19:41:27.886Z,54.85
2022-08-27T19:43:57.096Z,54.90
2022-08-27T19:46:27.201Z,54.96
2022-08-27T19:48:56.038Z,55.13
2022-08-27T19:51:25.085Z,55.36
2022-08-27T19:53:56.948Z,55.26
2022-08-27T19:56:29.113Z,55.59
2022-08-27T19:59:03.477Z,55.55
2022-08-27T20:01:38.495Z,55.59
2022-08-27T20:04:07.709Z,55.70
2022-08-27T20:06:36.758Z,55.92
2022-08-27T20:09:08.109Z,56.17
2022-08-27T20:11:36.895Z,56.35
2022-08-27T20:14:05.465Z,56.21
2022-08-27T20:16:39.910Z,56.81
2022-08-27T20:19:09.203Z,56.64
2022-08-27T20:21:38.118Z,56.70
2022-08-27T20:24:07.084Z,56.69
2022-08-27T20:26:36.178Z,57.18
2022-08-27T20:29:04.679Z,57.06
2022-08-27T20:31:33.594Z,57.37
2022-08-27T20:34:02.119Z,57.43
2022-08-27T20:36:33.004Z,57.40
2022-08-27T20:39:01.626Z,57.51
2022-08-27T20:41:30.293Z,57.57
2022-08-27T20:44:05.990Z,57.83
2022-08-27T20:46:37.698Z,57.81
2022-08-27T20:49:09.822Z,58.08
2022-08-27T20:52:01.921Z,57.88
2022-08-27T20:54:36.350Z,58.19
2022-08-27T20:57:16.223Z,58.10
2022-08-27T21:00:18.079Z,58.32
2022-08-27T21:02:55.405Z,58.54
2022-08-27T21:05:27.027Z,58.64
2022-08-27T21:07:55.965Z,58.80
2022-08-27T21:10:36.133Z,58.85
2022-08-27T21:13:11.922Z,58.92
2022-08-27T21:15:50.310Z,59.08
2022-08-27T21:18:34.385Z,59.22
2022-08-27T21:21:20.286Z,59.22
2022-08-27T21:23:54.793Z,59.48
2022-08-27T21:26:31.352Z,59.39
2022-08-27T21:29:08.600Z,59.52
2022-08-27T21:31:53.156Z,59.70
2022-08-27T21:34:33.678Z,59.61
2022-08-27T21:37:05.193Z,59.57
2022-08-27T21:39:47.017Z,60.08
2022-08-27T21:42:19.274Z,60.04
2022-08-27T21:45:08.418Z,60.25
2022-08-27T21:47:39.973Z,60.12
2022-08-27T21:50:28.487Z,60.40
2022-08-27T21:53:07.615Z,60.55
2022-08-27T21:55:45.381Z,60.49
2022-08-27T21:58:16.696Z,60.56
2022-08-27T22:00:50.747Z,60.70
2022-08-27T22:03:22.899Z,60.50
2022-08-27T22:05:51.912Z,60.64
2022-08-27T22:08:22.449Z,60.77
2022-08-27T22:10:55.183Z,60.91
2022-08-27T22:13:27.589Z,61.07
2022-08-27T22:16:05.424Z,61.07
2022-08-27T22:18:45.390Z,61.03
2022-08-27T22:21:35.322Z,61.08
2022-08-27T22:24:09.238Z,61.10
2022-08-27T22:26:43.548Z,60.98
2022-08-27T22:29:28.308Z,61.41
2022-08-27T22:32:19.628Z,61.25
2022-08-27T22:34:56.331Z,61.20
2022-08-27T22:37:53.659Z,61.58
2022-08-27T22:40:33.108Z,61.50
2022-08-27T22:43:36.728Z,61.47
2022-08-27T22:46:15.899Z,61.57
2022-08-27T22:48:58.411Z,61.53
2022-08-27T22:51:37.574Z,61.76
2022-08-27T22:54:23.565Z,61.60
2022-08-27T22:57:00.445Z,61.97
2022-08-27T22:59:38.763Z,61.82
2022-08-27T23:02:19.339Z,61.96
2022-08-27T23:04:56.592Z,62.08
2022-08-27T23:07:37.781Z,62.01
2022-08-27T23:10:22.655Z,62.07
2022-08-27T23:13:09.578Z,62.19
2022-08-27T23:15:50.575Z,62.35
2022-08-27T23:18:40.809Z,62.54
2022-08-27T23:21:26.514Z,62.36
2022-08-27T23:24:29.607Z,62.34
2022-08-27T23:27:30.861Z,62.43
2022-08-27T23:30:08.890Z,62.39
2022-08-27T23:32:58.166Z,62.60
2022-08-27T23:35:39.040Z,62.51
2022-08-27T23:38:10.728Z,62.57
2022-08-27T23:40:45.568Z,62.63
2022-08-27T23:43:23.697Z,62.65
2022-08-27T23:46:23.069Z,62.82
2022-08-27T23:49:16.883Z,62.65
2022-08-27T23:51:52.225Z,62.89
2022-08-27T23:54:26.191Z,63.00
2022-08-27T23:57:02.595Z,62.86
2022-08-27T23:59:34.400Z,63.09
